sensor_id;sensor_type;location;lat;lon;timestamp;P1;durP1;ratioP1;P2;durP2;ratioP2
70420;SDS011;57848;51.938;15.520;2023-05-10T00:01:05;10.77;;;3.88;;
70420;SDS011;57848;51.938;15.520;2023-05-10T00:03:30;10.10;;;3.80;;
70420;SDS011;57848;51.938;15.520;2023-05-10T00:05:56;9.00;;;3.50;;
70420;SDS011;57848;51.938;15.520;2023-05-10T00:08:22;9.25;;;3.40;;
70420;SDS011;57848;51.938;15.520;2023-05-10T00:10:47;9.70;;;3.37;;
70420;SDS011;57848;51.938;15.520;2023-05-10T00:13:13;7.72;;;3.22;;
70420;SDS011;57848;51.938;15.520;2023-05-10T00:15:38;12.37;;;3.80;;
70420;SDS011;57848;51.938;15.520;2023-05-10T00:18:03;8.43;;;3.80;;
70420;SDS011;57848;51.938;15.520;2023-05-10T00:20:29;7.53;;;3.57;;
70420;SDS011;57848;51.938;15.520;2023-05-10T00:22:54;9.53;;;3.07;;
70420;SDS011;57848;51.938;15.520;2023-05-10T00:25:20;15.75;;;4.00;;
70420;SDS011;57848;51.938;15.520;2023-05-10T00:27:46;9.03;;;3.30;;
70420;SDS011;57848;51.938;15.520;2023-05-10T00:30:12;9.15;;;3.63;;
70420;SDS011;57848;51.938;15.520;2023-05-10T00:32:37;12.80;;;3.67;;
70420;SDS011;57848;51.938;15.520;2023-05-10T00:35:03;8.60;;;3.33;;
70420;SDS011;57848;51.938;15.520;2023-05-10T00:37:28;9.77;;;3.92;;
70420;SDS011;57848;51.938;15.520;2023-05-10T00:39:54;10.80;;;3.77;;
70420;SDS011;57848;51.938;15.520;2023-05-10T00:42:19;8.13;;;3.77;;
70420;SDS011;57848;51.938;15.520;2023-05-10T00:44:44;10.03;;;3.53;;
70420;SDS011;57848;51.938;15.520;2023-05-10T00:47:11;9.73;;;3.33;;
70420;SDS011;57848;51.938;15.520;2023-05-10T00:49:37;10.43;;;3.73;;
70420;SDS011;57848;51.938;15.520;2023-05-10T00:52:02;8.33;;;3.30;;
70420;SDS011;57848;51.938;15.520;2023-05-10T00:54:28;8.52;;;3.60;;
70420;SDS011;57848;51.938;15.520;2023-05-10T00:56:54;13.00;;;4.10;;
70420;SDS011;57848;51.938;15.520;2023-05-10T00:59:21;9.10;;;3.60;;
70420;SDS011;57848;51.938;15.520;2023-05-10T01:01:47;8.40;;;3.50;;
70420;SDS011;57848;51.938;15.520;2023-05-10T01:04:13;10.87;;;3.80;;
70420;SDS011;57848;51.938;15.520;2023-05-10T01:06:39;10.05;;;3.63;;
70420;SDS011;57848;51.938;15.520;2023-05-10T01:09:05;8.23;;;2.90;;
70420;SDS011;57848;51.938;15.520;2023-05-10T01:11:32;8.38;;;3.90;;
70420;SDS011;57848;51.938;15.520;2023-05-10T01:13:58;8.20;;;3.70;;
70420;SDS011;57848;51.938;15.520;2023-05-10T01:16:24;10.13;;;3.77;;
70420;SDS011;57848;51.938;15.520;2023-05-10T01:18:50;9.32;;;3.83;;
70420;SDS011;57848;51.938;15.520;2023-05-10T01:24:09;10.60;;;3.80;;
70420;SDS011;57848;51.938;15.520;2023-05-10T01:26:56;9.67;;;3.43;;
70420;SDS011;57848;51.938;15.520;2023-05-10T01:32:49;15.60;;;4.50;;
70420;SDS011;57848;51.938;15.520;2023-05-10T01:41:08;9.07;;;3.57;;
70420;SDS011;57848;51.938;15.520;2023-05-10T01:43:43;8.70;;;3.55;;
70420;SDS011;57848;51.938;15.520;2023-05-10T01:46:27;8.07;;;3.60;;
70420;SDS011;57848;51.938;15.520;2023-05-10T01:48:58;8.65;;;3.70;;
70420;SDS011;57848;51.938;15.520;2023-05-10T01:51:29;8.07;;;3.80;;
70420;SDS011;57848;51.938;15.520;2023-05-10T01:54:09;9.03;;;3.70;;
70420;SDS011;57848;51.938;15.520;2023-05-10T01:56:37;10.55;;;4.15;;
70420;SDS011;57848;51.938;15.520;2023-05-10T01:59:06;10.98;;;4.07;;
70420;SDS011;57848;51.938;15.520;2023-05-10T02:01:36;13.35;;;3.90;;
70420;SDS011;57848;51.938;15.520;2023-05-10T02:04:03;11.35;;;3.90;;
70420;SDS011;57848;51.938;15.520;2023-05-10T02:06:31;9.00;;;3.90;;
70420;SDS011;57848;51.938;15.520;2023-05-10T02:08:57;11.68;;;3.83;;
70420;SDS011;57848;51.938;15.520;2023-05-10T02:11:25;9.45;;;3.70;;
70420;SDS011;57848;51.938;15.520;2023-05-10T02:13:52;9.35;;;3.88;;
70420;SDS011;57848;51.938;15.520;2023-05-10T02:16:24;9.60;;;4.22;;
70420;SDS011;57848;51.938;15.520;2023-05-10T02:18:52;8.17;;;4.03;;
70420;SDS011;57848;51.938;15.520;2023-05-10T02:21:19;10.93;;;4.20;;
70420;SDS011;57848;51.938;15.520;2023-05-10T02:23:46;10.13;;;4.28;;
70420;SDS011;57848;51.938;15.520;2023-05-10T02:26:13;10.10;;;4.07;;
70420;SDS011;57848;51.938;15.520;2023-05-10T02:28:41;10.02;;;3.85;;
70420;SDS011;57848;51.938;15.520;2023-05-10T02:31:07;9.87;;;3.80;;
70420;SDS011;57848;51.938;15.520;2023-05-10T02:33:38;10.73;;;3.72;;
70420;SDS011;57848;51.938;15.520;2023-05-10T02:36:05;10.38;;;4.05;;
70420;SDS011;57848;51.938;15.520;2023-05-10T02:38:35;9.25;;;3.45;;
70420;SDS011;57848;51.938;15.520;2023-05-10T02:41:01;10.55;;;3.70;;
70420;SDS011;57848;51.938;15.520;2023-05-10T02:43:28;10.17;;;3.80;;
70420;SDS011;57848;51.938;15.520;2023-05-10T02:45:56;10.90;;;4.10;;
70420;SDS011;57848;51.938;15.520;2023-05-10T02:48:22;9.77;;;3.83;;
70420;SDS011;57848;51.938;15.520;2023-05-10T02:50:47;9.77;;;3.93;;
70420;SDS011;57848;51.938;15.520;2023-05-10T02:53:18;9.00;;;3.40;;
70420;SDS011;57848;51.938;15.520;2023-05-10T02:55:50;12.00;;;4.13;;
70420;SDS011;57848;51.938;15.520;2023-05-10T02:58:17;10.50;;;4.32;;
70420;SDS011;57848;51.938;15.520;2023-05-10T03:00:44;11.75;;;3.80;;
70420;SDS011;57848;51.938;15.520;2023-05-10T03:03:11;10.10;;;4.35;;
70420;SDS011;57848;51.938;15.520;2023-05-10T03:05:36;11.37;;;3.63;;
70420;SDS011;57848;51.938;15.520;2023-05-10T03:08:02;11.15;;;4.47;;
70420;SDS011;57848;51.938;15.520;2023-05-10T03:10:29;10.13;;;4.37;;
70420;SDS011;57848;51.938;15.520;2023-05-10T03:13:02;8.43;;;3.83;;
70420;SDS011;57848;51.938;15.520;2023-05-10T03:15:52;9.88;;;4.35;;
70420;SDS011;57848;51.938;15.520;2023-05-10T03:18:22;8.73;;;4.00;;
70420;SDS011;57848;51.938;15.520;2023-05-10T03:20:56;12.20;;;4.38;;
70420;SDS011;57848;51.938;15.520;2023-05-10T03:23:27;11.00;;;4.50;;
70420;SDS011;57848;51.938;15.520;2023-05-10T03:25:59;9.82;;;4.15;;
70420;SDS011;57848;51.938;15.520;2023-05-10T03:28:25;9.32;;;4.38;;
70420;SDS011;57848;51.938;15.520;2023-05-10T03:30:52;10.80;;;4.20;;
70420;SDS011;57848;51.938;15.520;2023-05-10T03:33:19;8.77;;;4.10;;
70420;SDS011;57848;51.938;15.520;2023-05-10T03:35:45;10.93;;;4.37;;
70420;SDS011;57848;51.938;15.520;2023-05-10T03:38:12;9.60;;;4.43;;
70420;SDS011;57848;51.938;15.520;2023-05-10T03:40:37;10.77;;;4.40;;
70420;SDS011;57848;51.938;15.520;2023-05-10T03:43:03;10.18;;;4.18;;
70420;SDS011;57848;51.938;15.520;2023-05-10T03:45:29;9.73;;;4.37;;
70420;SDS011;57848;51.938;15.520;2023-05-10T03:47:56;11.57;;;4.22;;
70420;SDS011;57848;51.938;15.520;2023-05-10T03:50:22;10.48;;;3.88;;
70420;SDS011;57848;51.938;15.520;2023-05-10T03:52:47;10.07;;;4.10;;
70420;SDS011;57848;51.938;15.520;2023-05-10T03:55:13;10.20;;;4.43;;
70420;SDS011;57848;51.938;15.520;2023-05-10T03:57:38;10.20;;;4.03;;
70420;SDS011;57848;51.938;15.520;2023-05-10T04:00:05;9.80;;;4.20;;
70420;SDS011;57848;51.938;15.520;2023-05-10T04:02:39;9.05;;;3.97;;
70420;SDS011;57848;51.938;15.520;2023-05-10T04:05:05;9.60;;;4.05;;
70420;SDS011;57848;51.938;15.520;2023-05-10T04:07:30;10.50;;;4.57;;
70420;SDS011;57848;51.938;15.520;2023-05-10T04:09:56;10.20;;;4.00;;
70420;SDS011;57848;51.938;15.520;2023-05-10T04:12:21;11.37;;;4.50;;
70420;SDS011;57848;51.938;15.520;2023-05-10T04:14:46;8.70;;;4.50;;
70420;SDS011;57848;51.938;15.520;2023-05-10T04:17:12;11.18;;;4.57;;
70420;SDS011;57848;51.938;15.520;2023-05-10T04:19:37;12.17;;;4.60;;
70420;SDS011;57848;51.938;15.520;2023-05-10T04:22:03;11.67;;;4.23;;
70420;SDS011;57848;51.938;15.520;2023-05-10T04:24:29;10.80;;;3.88;;
70420;SDS011;57848;51.938;15.520;2023-05-10T04:26:55;10.07;;;3.97;;
70420;SDS011;57848;51.938;15.520;2023-05-10T04:29:20;9.90;;;4.20;;
70420;SDS011;57848;51.938;15.520;2023-05-10T04:31:46;10.23;;;4.33;;
70420;SDS011;57848;51.938;15.520;2023-05-10T04:34:11;9.90;;;4.27;;
70420;SDS011;57848;51.938;15.520;2023-05-10T04:36:36;9.40;;;3.87;;
70420;SDS011;57848;51.938;15.520;2023-05-10T04:39:02;10.20;;;3.93;;
70420;SDS011;57848;51.938;15.520;2023-05-10T04:41:28;10.75;;;4.40;;
70420;SDS011;57848;51.938;15.520;2023-05-10T04:43:54;9.93;;;4.40;;
70420;SDS011;57848;51.938;15.520;2023-05-10T04:46:19;10.70;;;3.95;;
70420;SDS011;57848;51.938;15.520;2023-05-10T04:48:44;9.23;;;4.37;;
70420;SDS011;57848;51.938;15.520;2023-05-10T04:51:10;8.37;;;3.57;;
70420;SDS011;57848;51.938;15.520;2023-05-10T04:53:36;9.77;;;3.80;;
70420;SDS011;57848;51.938;15.520;2023-05-10T04:56:01;11.37;;;4.13;;
70420;SDS011;57848;51.938;15.520;2023-05-10T04:58:26;11.30;;;3.20;;
70420;SDS011;57848;51.938;15.520;2023-05-10T05:00:52;12.33;;;4.37;;
70420;SDS011;57848;51.938;15.520;2023-05-10T05:03:17;8.67;;;3.60;;
70420;SDS011;57848;51.938;15.520;2023-05-10T05:05:43;8.02;;;3.88;;
70420;SDS011;57848;51.938;15.520;2023-05-10T05:08:09;10.00;;;3.70;;
70420;SDS011;57848;51.938;15.520;2023-05-10T05:10:34;8.67;;;3.70;;
70420;SDS011;57848;51.938;15.520;2023-05-10T05:13:00;8.30;;;3.33;;
70420;SDS011;57848;51.938;15.520;2023-05-10T05:15:25;10.13;;;4.67;;
70420;SDS011;57848;51.938;15.520;2023-05-10T05:17:50;10.87;;;3.53;;
70420;SDS011;57848;51.938;15.520;2023-05-10T05:20:16;9.50;;;3.40;;
70420;SDS011;57848;51.938;15.520;2023-05-10T05:22:42;9.52;;;3.63;;
70420;SDS011;57848;51.938;15.520;2023-05-10T05:25:07;9.67;;;3.60;;
70420;SDS011;57848;51.938;15.520;2023-05-10T05:27:33;9.38;;;3.40;;
70420;SDS011;57848;51.938;15.520;2023-05-10T05:29:58;9.93;;;3.07;;
70420;SDS011;57848;51.938;15.520;2023-05-10T05:32:24;8.33;;;3.40;;
70420;SDS011;57848;51.938;15.520;2023-05-10T05:34:50;10.40;;;3.63;;
70420;SDS011;57848;51.938;15.520;2023-05-10T05:37:16;8.70;;;3.50;;
70420;SDS011;57848;51.938;15.520;2023-05-10T05:39:43;9.73;;;3.40;;
70420;SDS011;57848;51.938;15.520;2023-05-10T05:42:09;11.75;;;3.65;;
70420;SDS011;57848;51.938;15.520;2023-05-10T05:44:35;9.23;;;3.40;;
70420;SDS011;57848;51.938;15.520;2023-05-10T05:47:00;8.20;;;3.67;;
70420;SDS011;57848;51.938;15.520;2023-05-10T05:49:26;10.40;;;3.43;;
70420;SDS011;57848;51.938;15.520;2023-05-10T05:51:51;11.13;;;3.57;;
70420;SDS011;57848;51.938;15.520;2023-05-10T05:54:17;10.27;;;3.23;;
70420;SDS011;57848;51.938;15.520;2023-05-10T05:56:42;8.73;;;3.30;;
70420;SDS011;57848;51.938;15.520;2023-05-10T05:59:09;11.23;;;3.23;;
70420;SDS011;57848;51.938;15.520;2023-05-10T06:01:34;9.70;;;2.90;;
70420;SDS011;57848;51.938;15.520;2023-05-10T06:03:59;7.40;;;3.30;;
70420;SDS011;57848;51.938;15.520;2023-05-10T06:06:25;10.30;;;3.27;;
70420;SDS011;57848;51.938;15.520;2023-05-10T06:08:50;11.23;;;3.27;;
70420;SDS011;57848;51.938;15.520;2023-05-10T06:11:16;8.02;;;3.63;;
70420;SDS011;57848;51.938;15.520;2023-05-10T06:13:41;9.37;;;3.23;;
70420;SDS011;57848;51.938;15.520;2023-05-10T06:16:08;9.05;;;2.92;;
70420;SDS011;57848;51.938;15.520;2023-05-10T06:18:33;9.57;;;2.87;;
70420;SDS011;57848;51.938;15.520;2023-05-10T06:20:59;7.70;;;3.10;;
70420;SDS011;57848;51.938;15.520;2023-05-10T06:23:24;11.35;;;3.63;;
70420;SDS011;57848;51.938;15.520;2023-05-10T06:25:50;8.53;;;3.17;;
70420;SDS011;57848;51.938;15.520;2023-05-10T06:28:16;9.70;;;2.50;;
70420;SDS011;57848;51.938;15.520;2023-05-10T06:30:41;7.87;;;2.60;;
70420;SDS011;57848;51.938;15.520;2023-05-10T06:33:07;7.20;;;2.90;;
70420;SDS011;57848;51.938;15.520;2023-05-10T06:35:33;12.60;;;3.37;;
70420;SDS011;57848;51.938;15.520;2023-05-10T06:37:58;10.27;;;3.20;;
70420;SDS011;57848;51.938;15.520;2023-05-10T06:40:23;7.43;;;2.93;;
70420;SDS011;57848;51.938;15.520;2023-05-10T06:42:49;8.90;;;3.50;;
70420;SDS011;57848;51.938;15.520;2023-05-10T06:45:14;7.55;;;3.28;;
70420;SDS011;57848;51.938;15.520;2023-05-10T06:47:40;9.10;;;3.33;;
70420;SDS011;57848;51.938;15.520;2023-05-10T06:50:09;7.05;;;2.97;;
70420;SDS011;57848;51.938;15.520;2023-05-10T06:52:36;8.15;;;3.35;;
70420;SDS011;57848;51.938;15.520;2023-05-10T06:55:02;9.80;;;2.83;;
70420;SDS011;57848;51.938;15.520;2023-05-10T06:57:29;10.13;;;3.40;;
70420;SDS011;57848;51.938;15.520;2023-05-10T06:59:54;8.73;;;2.57;;
70420;SDS011;57848;51.938;15.520;2023-05-10T07:02:21;8.57;;;3.38;;
70420;SDS011;57848;51.938;15.520;2023-05-10T07:04:47;8.13;;;3.22;;
70420;SDS011;57848;51.938;15.520;2023-05-10T07:07:13;8.90;;;3.33;;
70420;SDS011;57848;51.938;15.520;2023-05-10T07:09:39;8.55;;;3.33;;
70420;SDS011;57848;51.938;15.520;2023-05-10T07:12:04;7.20;;;2.83;;
70420;SDS011;57848;51.938;15.520;2023-05-10T07:14:29;7.17;;;3.17;;
70420;SDS011;57848;51.938;15.520;2023-05-10T07:16:55;10.07;;;3.80;;
70420;SDS011;57848;51.938;15.520;2023-05-10T07:19:20;9.97;;;4.30;;
70420;SDS011;57848;51.938;15.520;2023-05-10T07:21:46;8.97;;;3.17;;
70420;SDS011;57848;51.938;15.520;2023-05-10T07:24:11;9.30;;;3.00;;
70420;SDS011;57848;51.938;15.520;2023-05-10T07:26:36;8.13;;;3.23;;
70420;SDS011;57848;51.938;15.520;2023-05-10T07:29:02;8.57;;;3.15;;
70420;SDS011;57848;51.938;15.520;2023-05-10T07:31:27;8.10;;;3.20;;
70420;SDS011;57848;51.938;15.520;2023-05-10T07:33:53;9.17;;;2.77;;
70420;SDS011;57848;51.938;15.520;2023-05-10T07:36:18;7.40;;;2.87;;
70420;SDS011;57848;51.938;15.520;2023-05-10T07:38:44;9.37;;;3.00;;
70420;SDS011;57848;51.938;15.520;2023-05-10T07:41:09;7.60;;;2.80;;
70420;SDS011;57848;51.938;15.520;2023-05-10T07:43:36;9.30;;;2.75;;
70420;SDS011;57848;51.938;15.520;2023-05-10T07:46:01;8.67;;;3.00;;
70420;SDS011;57848;51.938;15.520;2023-05-10T07:48:26;7.70;;;2.93;;
70420;SDS011;57848;51.938;15.520;2023-05-10T07:50:51;8.97;;;2.90;;
70420;SDS011;57848;51.938;15.520;2023-05-10T07:53:17;7.47;;;2.77;;
70420;SDS011;57848;51.938;15.520;2023-05-10T07:55:43;12.00;;;3.20;;
70420;SDS011;57848;51.938;15.520;2023-05-10T07:58:09;9.00;;;3.30;;
70420;SDS011;57848;51.938;15.520;2023-05-10T08:00:34;7.83;;;2.40;;
70420;SDS011;57848;51.938;15.520;2023-05-10T08:03:00;8.10;;;3.00;;
70420;SDS011;57848;51.938;15.520;2023-05-10T08:05:25;9.53;;;2.87;;
70420;SDS011;57848;51.938;15.520;2023-05-10T08:07:50;7.87;;;2.70;;
70420;SDS011;57848;51.938;15.520;2023-05-10T08:10:16;7.47;;;2.60;;
70420;SDS011;57848;51.938;15.520;2023-05-10T08:12:41;7.27;;;2.47;;
70420;SDS011;57848;51.938;15.520;2023-05-10T08:15:07;10.60;;;2.57;;
70420;SDS011;57848;51.938;15.520;2023-05-10T08:17:33;8.77;;;2.80;;
70420;SDS011;57848;51.938;15.520;2023-05-10T08:19:58;12.20;;;2.87;;
70420;SDS011;57848;51.938;15.520;2023-05-10T08:22:24;8.03;;;2.63;;
70420;SDS011;57848;51.938;15.520;2023-05-10T08:24:49;8.10;;;2.80;;
70420;SDS011;57848;51.938;15.520;2023-05-10T08:27:14;9.60;;;2.80;;
70420;SDS011;57848;51.938;15.520;2023-05-10T08:29:40;13.10;;;3.37;;
70420;SDS011;57848;51.938;15.520;2023-05-10T08:32:05;6.67;;;2.87;;
70420;SDS011;57848;51.938;15.520;2023-05-10T08:34:31;8.20;;;2.97;;
70420;SDS011;57848;51.938;15.520;2023-05-10T08:36:56;8.30;;;2.90;;
70420;SDS011;57848;51.938;15.520;2023-05-10T08:39:21;9.43;;;2.47;;
70420;SDS011;57848;51.938;15.520;2023-05-10T08:41:48;9.02;;;3.13;;
70420;SDS011;57848;51.938;15.520;2023-05-10T08:44:17;8.57;;;3.55;;
70420;SDS011;57848;51.938;15.520;2023-05-10T08:46:44;8.77;;;3.33;;
70420;SDS011;57848;51.938;15.520;2023-05-10T08:49:13;7.15;;;2.92;;
70420;SDS011;57848;51.938;15.520;2023-05-10T08:51:42;6.38;;;2.65;;
70420;SDS011;57848;51.938;15.520;2023-05-10T08:54:12;7.90;;;3.13;;
70420;SDS011;57848;51.938;15.520;2023-05-10T08:56:37;7.90;;;2.90;;
70420;SDS011;57848;51.938;15.520;2023-05-10T08:59:03;8.27;;;2.87;;
70420;SDS011;57848;51.938;15.520;2023-05-10T09:01:29;7.07;;;2.40;;
70420;SDS011;57848;51.938;15.520;2023-05-10T09:03:57;7.60;;;2.90;;
70420;SDS011;57848;51.938;15.520;2023-05-10T09:06:23;7.88;;;3.65;;
70420;SDS011;57848;51.938;15.520;2023-05-10T09:08:49;7.43;;;2.67;;
70420;SDS011;57848;51.938;15.520;2023-05-10T09:11:14;8.65;;;2.53;;
70420;SDS011;57848;51.938;15.520;2023-05-10T09:13:41;6.35;;;2.47;;
70420;SDS011;57848;51.938;15.520;2023-05-10T09:16:07;6.90;;;2.90;;
70420;SDS011;57848;51.938;15.520;2023-05-10T09:18:32;6.65;;;2.35;;
70420;SDS011;57848;51.938;15.520;2023-05-10T09:20:57;7.00;;;2.30;;
70420;SDS011;57848;51.938;15.520;2023-05-10T09:23:23;7.03;;;2.73;;
70420;SDS011;57848;51.938;15.520;2023-05-10T09:26:03;6.97;;;2.50;;
70420;SDS011;57848;51.938;15.520;2023-05-10T09:31:21;6.73;;;2.63;;
70420;SDS011;57848;51.938;15.520;2023-05-10T09:33:47;7.75;;;2.72;;
70420;SDS011;57848;51.938;15.520;2023-05-10T09:36:14;8.93;;;2.53;;
70420;SDS011;57848;51.938;15.520;2023-05-10T09:38:49;7.32;;;2.60;;
70420;SDS011;57848;51.938;15.520;2023-05-10T09:41:22;6.87;;;2.63;;
70420;SDS011;57848;51.938;15.520;2023-05-10T09:43:48;8.02;;;2.67;;
70420;SDS011;57848;51.938;15.520;2023-05-10T09:46:15;7.80;;;2.83;;
70420;SDS011;57848;51.938;15.520;2023-05-10T09:48:42;7.68;;;2.28;;
70420;SDS011;57848;51.938;15.520;2023-05-10T09:51:09;8.40;;;2.20;;
70420;SDS011;57848;51.938;15.520;2023-05-10T09:53:34;7.60;;;2.40;;
70420;SDS011;57848;51.938;15.520;2023-05-10T09:56:00;9.00;;;2.47;;
70420;SDS011;57848;51.938;15.520;2023-05-10T09:58:25;7.83;;;2.20;;
70420;SDS011;57848;51.938;15.520;2023-05-10T10:00:50;8.40;;;2.30;;
70420;SDS011;57848;51.938;15.520;2023-05-10T10:03:18;7.50;;;2.10;;
70420;SDS011;57848;51.938;15.520;2023-05-10T10:05:44;6.03;;;2.25;;
70420;SDS011;57848;51.938;15.520;2023-05-10T10:08:11;7.93;;;2.45;;
70420;SDS011;57848;51.938;15.520;2023-05-10T10:10:37;6.90;;;2.00;;
70420;SDS011;57848;51.938;15.520;2023-05-10T10:13:05;7.07;;;2.40;;
70420;SDS011;57848;51.938;15.520;2023-05-10T10:15:31;8.52;;;2.50;;
70420;SDS011;57848;51.938;15.520;2023-05-10T10:17:57;7.32;;;2.20;;
70420;SDS011;57848;51.938;15.520;2023-05-10T10:20:25;7.13;;;2.45;;
70420;SDS011;57848;51.938;15.520;2023-05-10T10:22:51;5.97;;;2.45;;
70420;SDS011;57848;51.938;15.520;2023-05-10T10:25:17;12.17;;;2.40;;
70420;SDS011;57848;51.938;15.520;2023-05-10T10:30:32;8.47;;;2.60;;
70420;SDS011;57848;51.938;15.520;2023-05-10T10:35:31;7.63;;;3.13;;
70420;SDS011;57848;51.938;15.520;2023-05-10T10:37:57;6.90;;;2.72;;
70420;SDS011;57848;51.938;15.520;2023-05-10T10:42:55;7.45;;;2.53;;
70420;SDS011;57848;51.938;15.520;2023-05-10T10:45:22;5.63;;;2.22;;
70420;SDS011;57848;51.938;15.520;2023-05-10T10:47:48;6.23;;;2.40;;
70420;SDS011;57848;51.938;15.520;2023-05-10T10:50:14;9.98;;;2.50;;
70420;SDS011;57848;51.938;15.520;2023-05-10T10:52:44;7.22;;;2.38;;
70420;SDS011;57848;51.938;15.520;2023-05-10T10:55:14;6.50;;;2.70;;
70420;SDS011;57848;51.938;15.520;2023-05-10T10:57:50;7.03;;;2.60;;
70420;SDS011;57848;51.938;15.520;2023-05-10T11:00:37;9.43;;;2.93;;
70420;SDS011;57848;51.938;15.520;2023-05-10T11:05:41;6.47;;;2.33;;
70420;SDS011;57848;51.938;15.520;2023-05-10T11:16:27;8.48;;;2.10;;
70420;SDS011;57848;51.938;15.520;2023-05-10T11:18:57;8.37;;;2.17;;
70420;SDS011;57848;51.938;15.520;2023-05-10T11:21:33;8.80;;;2.40;;
70420;SDS011;57848;51.938;15.520;2023-05-10T11:24:12;7.50;;;2.47;;
70420;SDS011;57848;51.938;15.520;2023-05-10T11:26:39;6.38;;;2.53;;
70420;SDS011;57848;51.938;15.520;2023-05-10T11:29:04;11.00;;;2.60;;
70420;SDS011;57848;51.938;15.520;2023-05-10T11:31:30;7.35;;;2.40;;
70420;SDS011;57848;51.938;15.520;2023-05-10T11:33:56;8.40;;;2.40;;
70420;SDS011;57848;51.938;15.520;2023-05-10T11:36:24;8.45;;;2.28;;
70420;SDS011;57848;51.938;15.520;2023-05-10T11:38:51;7.45;;;2.55;;
70420;SDS011;57848;51.938;15.520;2023-05-10T11:41:18;10.93;;;2.60;;
70420;SDS011;57848;51.938;15.520;2023-05-10T11:43:47;9.63;;;2.83;;
70420;SDS011;57848;51.938;15.520;2023-05-10T11:46:14;7.95;;;2.25;;
70420;SDS011;57848;51.938;15.520;2023-05-10T11:48:41;7.35;;;2.30;;
70420;SDS011;57848;51.938;15.520;2023-05-10T11:51:08;5.55;;;2.20;;
70420;SDS011;57848;51.938;15.520;2023-05-10T11:53:34;9.43;;;2.53;;
70420;SDS011;57848;51.938;15.520;2023-05-10T11:56:03;8.18;;;2.67;;
70420;SDS011;57848;51.938;15.520;2023-05-10T11:58:32;7.87;;;2.80;;
70420;SDS011;57848;51.938;15.520;2023-05-10T12:01:01;7.43;;;2.28;;
70420;SDS011;57848;51.938;15.520;2023-05-10T12:03:27;7.10;;;1.98;;
70420;SDS011;57848;51.938;15.520;2023-05-10T12:05:53;9.10;;;2.60;;
70420;SDS011;57848;51.938;15.520;2023-05-10T12:08:21;9.32;;;2.60;;
70420;SDS011;57848;51.938;15.520;2023-05-10T12:10:48;7.50;;;2.60;;
70420;SDS011;57848;51.938;15.520;2023-05-10T12:13:13;6.90;;;2.10;;
70420;SDS011;57848;51.938;15.520;2023-05-10T12:15:40;8.53;;;2.23;;
70420;SDS011;57848;51.938;15.520;2023-05-10T12:18:07;7.20;;;2.20;;
70420;SDS011;57848;51.938;15.520;2023-05-10T12:20:34;8.50;;;3.17;;
70420;SDS011;57848;51.938;15.520;2023-05-10T12:22:59;8.43;;;2.00;;
70420;SDS011;57848;51.938;15.520;2023-05-10T12:25:34;9.38;;;2.83;;
70420;SDS011;57848;51.938;15.520;2023-05-10T12:28:03;7.13;;;2.55;;
70420;SDS011;57848;51.938;15.520;2023-05-10T12:30:31;6.72;;;2.50;;
70420;SDS011;57848;51.938;15.520;2023-05-10T12:33:01;6.35;;;2.63;;
70420;SDS011;57848;51.938;15.520;2023-05-10T12:35:33;9.17;;;3.10;;
70420;SDS011;57848;51.938;15.520;2023-05-10T12:38:28;8.93;;;2.80;;
70420;SDS011;57848;51.938;15.520;2023-05-10T12:40:57;7.30;;;2.80;;
70420;SDS011;57848;51.938;15.520;2023-05-10T12:43:24;6.55;;;2.13;;
70420;SDS011;57848;51.938;15.520;2023-05-10T12:45:49;6.60;;;2.30;;
70420;SDS011;57848;51.938;15.520;2023-05-10T12:48:15;7.33;;;2.30;;
70420;SDS011;57848;51.938;15.520;2023-05-10T12:50:40;12.50;;;2.70;;
70420;SDS011;57848;51.938;15.520;2023-05-10T12:53:06;7.67;;;2.40;;
70420;SDS011;57848;51.938;15.520;2023-05-10T12:55:31;9.57;;;2.40;;
70420;SDS011;57848;51.938;15.520;2023-05-10T12:57:57;7.70;;;2.33;;
70420;SDS011;57848;51.938;15.520;2023-05-10T13:00:22;9.47;;;3.13;;
70420;SDS011;57848;51.938;15.520;2023-05-10T13:02:47;8.17;;;2.47;;
70420;SDS011;57848;51.938;15.520;2023-05-10T13:05:13;7.93;;;2.30;;
70420;SDS011;57848;51.938;15.520;2023-05-10T13:07:38;7.93;;;2.50;;
70420;SDS011;57848;51.938;15.520;2023-05-10T13:10:04;6.37;;;2.53;;
70420;SDS011;57848;51.938;15.520;2023-05-10T13:12:31;8.15;;;2.38;;
70420;SDS011;57848;51.938;15.520;2023-05-10T13:14:56;9.07;;;2.30;;
70420;SDS011;57848;51.938;15.520;2023-05-10T13:17:21;9.00;;;2.70;;
70420;SDS011;57848;51.938;15.520;2023-05-10T13:19:47;9.00;;;2.43;;
70420;SDS011;57848;51.938;15.520;2023-05-10T13:22:12;12.90;;;2.30;;
70420;SDS011;57848;51.938;15.520;2023-05-10T13:24:38;11.00;;;2.70;;
70420;SDS011;57848;51.938;15.520;2023-05-10T13:27:03;11.37;;;2.30;;
70420;SDS011;57848;51.938;15.520;2023-05-10T13:29:28;7.57;;;2.60;;
70420;SDS011;57848;51.938;15.520;2023-05-10T13:31:54;6.47;;;2.27;;
70420;SDS011;57848;51.938;15.520;2023-05-10T13:34:19;7.25;;;2.40;;
70420;SDS011;57848;51.938;15.520;2023-05-10T13:36:47;8.40;;;2.60;;
70420;SDS011;57848;51.938;15.520;2023-05-10T13:39:13;8.43;;;2.92;;
70420;SDS011;57848;51.938;15.520;2023-05-10T13:41:39;13.03;;;2.20;;
70420;SDS011;57848;51.938;15.520;2023-05-10T13:44:04;10.10;;;2.80;;
70420;SDS011;57848;51.938;15.520;2023-05-10T13:46:30;5.37;;;2.23;;
70420;SDS011;57848;51.938;15.520;2023-05-10T13:48:55;6.47;;;2.40;;
70420;SDS011;57848;51.938;15.520;2023-05-10T13:51:21;9.35;;;2.25;;
70420;SDS011;57848;51.938;15.520;2023-05-10T13:53:47;9.75;;;2.65;;
70420;SDS011;57848;51.938;15.520;2023-05-10T13:59:53;8.98;;;2.08;;
70420;SDS011;57848;51.938;15.520;2023-05-10T14:02:19;9.63;;;2.10;;
70420;SDS011;57848;51.938;15.520;2023-05-10T14:04:45;8.13;;;2.33;;
70420;SDS011;57848;51.938;15.520;2023-05-10T14:07:10;9.20;;;2.70;;
70420;SDS011;57848;51.938;15.520;2023-05-10T14:09:36;6.03;;;2.50;;
70420;SDS011;57848;51.938;15.520;2023-05-10T14:12:01;7.50;;;2.20;;
70420;SDS011;57848;51.938;15.520;2023-05-10T14:14:27;8.73;;;2.03;;
70420;SDS011;57848;51.938;15.520;2023-05-10T14:16:54;5.93;;;1.80;;
70420;SDS011;57848;51.938;15.520;2023-05-10T14:19:19;6.90;;;2.30;;
70420;SDS011;57848;51.938;15.520;2023-05-10T14:21:44;8.33;;;2.10;;
70420;SDS011;57848;51.938;15.520;2023-05-10T14:24:10;5.87;;;2.20;;
70420;SDS011;57848;51.938;15.520;2023-05-10T14:26:35;6.93;;;2.43;;
70420;SDS011;57848;51.938;15.520;2023-05-10T14:29:00;6.13;;;2.53;;
70420;SDS011;57848;51.938;15.520;2023-05-10T14:31:26;5.50;;;2.25;;
70420;SDS011;57848;51.938;15.520;2023-05-10T14:33:52;5.53;;;2.00;;
70420;SDS011;57848;51.938;15.520;2023-05-10T14:36:17;8.15;;;2.20;;
70420;SDS011;57848;51.938;15.520;2023-05-10T14:38:43;6.63;;;2.30;;
70420;SDS011;57848;51.938;15.520;2023-05-10T14:41:08;8.27;;;2.10;;
70420;SDS011;57848;51.938;15.520;2023-05-10T14:43:33;6.88;;;2.45;;
70420;SDS011;57848;51.938;15.520;2023-05-10T14:45:59;7.57;;;2.67;;
70420;SDS011;57848;51.938;15.520;2023-05-10T14:48:24;9.27;;;2.30;;
70420;SDS011;57848;51.938;15.520;2023-05-10T14:50:50;7.77;;;2.83;;
70420;SDS011;57848;51.938;15.520;2023-05-10T14:56:58;6.50;;;2.20;;
70420;SDS011;57848;51.938;15.520;2023-05-10T14:59:24;7.88;;;2.20;;
70420;SDS011;57848;51.938;15.520;2023-05-10T15:01:49;8.00;;;2.47;;
70420;SDS011;57848;51.938;15.520;2023-05-10T15:04:15;8.93;;;2.10;;
70420;SDS011;57848;51.938;15.520;2023-05-10T15:06:41;7.40;;;2.17;;
70420;SDS011;57848;51.938;15.520;2023-05-10T15:09:06;5.83;;;2.07;;